createdAt,value
2018-06-08T00:01:38.673Z,2.90
2018-06-08T00:04:09.614Z,3.02
2018-06-08T00:06:40.279Z,3.27
2018-06-08T00:09:11.549Z,3.04
2018-06-08T00:11:42.366Z,2.75
2018-06-08T00:14:13.540Z,2.70
2018-06-08T00:16:44.328Z,2.90
2018-06-08T00:19:15.617Z,2.96
2018-06-08T00:21:46.322Z,2.70
2018-06-08T00:24:17.609Z,3.22
2018-06-08T00:26:48.390Z,3.12
2018-06-08T00:29:19.609Z,3.68
2018-06-08T00:31:50.065Z,2.77
2018-06-08T00:34:20.453Z,2.83
2018-06-08T00:36:51.657Z,3.04
2018-06-08T00:39:22.271Z,3.15
2018-06-08T00:41:53.609Z,2.46
2018-06-08T00:44:24.254Z,2.90
2018-06-08T00:46:55.589Z,2.90
2018-06-08T00:49:26.204Z,2.77
2018-06-08T00:51:57.641Z,3.06
2018-06-08T00:54:28.313Z,2.52
2018-06-08T00:57:07.477Z,2.86
2018-06-08T00:59:37.255Z,2.83
2018-06-08T01:02:07.093Z,2.83
2018-06-08T01:04:36.914Z,2.70
2018-06-08T01:07:06.840Z,2.87
2018-06-08T01:09:37.097Z,2.25
2018-06-08T01:12:06.842Z,2.83
2018-06-08T01:14:37.232Z,3.47
2018-06-08T01:17:06.997Z,3.10
2018-06-08T01:19:37.725Z,3.42
2018-06-08T01:22:08.282Z,3.35
2018-06-08T01:24:39.549Z,2.86
2018-06-08T01:27:10.275Z,2.72
2018-06-08T01:29:41.649Z,2.82
2018-06-08T01:32:12.287Z,3.45
2018-06-08T01:34:43.625Z,3.32
2018-06-08T01:37:14.236Z,3.10
2018-06-08T01:39:44.684Z,3.00
2018-06-08T01:42:15.309Z,3.47
2018-06-08T01:44:46.569Z,3.06
2018-06-08T01:47:17.297Z,3.22
2018-06-08T01:49:48.576Z,3.94
2018-06-08T01:52:19.309Z,3.33
2018-06-08T01:54:50.652Z,3.60
2018-06-08T01:57:21.261Z,3.15
2018-06-08T01:59:52.690Z,3.18
2018-06-08T02:09:22.879Z,2.80
2018-06-08T02:11:52.900Z,2.80
2018-06-08T02:14:22.876Z,3.13
2018-06-08T02:16:52.974Z,2.70
2018-06-08T02:19:23.881Z,3.00
2018-06-08T02:21:53.953Z,3.03
2018-06-08T02:24:23.865Z,2.93
2018-06-08T02:26:53.933Z,3.30
2018-06-08T02:29:23.839Z,3.10
2018-06-08T02:31:53.597Z,2.90
2018-06-08T02:34:23.565Z,3.70
2018-06-08T02:36:53.348Z,3.07
2018-06-08T02:39:23.077Z,3.57
2018-06-08T02:41:53.055Z,3.10
2018-06-08T02:44:22.941Z,3.00
2018-06-08T02:46:52.901Z,3.13
2018-06-08T02:49:22.926Z,2.70
2018-06-08T02:51:52.837Z,3.17
2018-06-08T02:54:22.886Z,3.10
2018-06-08T02:56:52.877Z,2.87
2018-06-08T02:59:22.848Z,3.07
2018-06-08T03:01:52.875Z,2.77
2018-06-08T03:04:22.821Z,3.00
2018-06-08T03:06:52.830Z,2.50
2018-06-08T03:09:22.930Z,3.00
2018-06-08T03:11:52.822Z,2.90
2018-06-08T03:14:22.873Z,3.07
2018-06-08T03:16:52.899Z,3.17
2018-06-08T03:19:22.877Z,2.70
2018-06-08T03:21:52.886Z,2.80
2018-06-08T03:24:22.857Z,2.70
2018-06-08T03:26:52.885Z,2.60
2018-06-08T03:29:22.925Z,3.10
2018-06-08T03:31:52.842Z,2.90
2018-06-08T03:34:22.915Z,2.77
2018-06-08T03:36:52.838Z,3.27
2018-06-08T03:39:22.921Z,2.87
2018-06-08T03:41:52.813Z,2.97
2018-06-08T03:44:22.885Z,2.63
2018-06-08T03:46:53.238Z,3.23
2018-06-08T03:49:23.025Z,3.30
2018-06-08T03:51:52.925Z,3.10
2018-06-08T03:54:22.913Z,2.80
2018-06-08T03:56:53.257Z,2.80
2018-06-08T03:59:23.034Z,2.77
2018-06-08T04:01:52.846Z,3.30
2018-06-08T04:04:22.829Z,3.30
2018-06-08T04:06:52.786Z,2.83
2018-06-08T04:09:22.929Z,3.27
2018-06-08T04:11:52.829Z,2.97
2018-06-08T04:14:22.908Z,3.13
2018-06-08T04:16:52.796Z,3.10
2018-06-08T04:19:22.892Z,3.13
2018-06-08T04:21:52.783Z,3.00
2018-06-08T04:24:22.853Z,3.20
2018-06-08T04:26:52.847Z,2.97
2018-06-08T04:29:22.839Z,3.07
2018-06-08T04:31:52.845Z,3.17
2018-06-08T04:34:22.797Z,3.97
2018-06-08T04:36:52.854Z,3.37
2018-06-08T04:39:22.826Z,3.70
2018-06-08T04:41:52.830Z,3.37
2018-06-08T04:44:22.913Z,3.13
2018-06-08T04:46:52.777Z,3.10
2018-06-08T04:49:22.912Z,3.03
2018-06-08T04:51:52.793Z,3.27
2018-06-08T04:54:22.889Z,3.70
2018-06-08T04:56:53.376Z,3.57
2018-06-08T04:59:23.332Z,3.83
2018-06-08T05:01:53.073Z,3.80
2018-06-08T05:04:22.861Z,3.53
2018-06-08T05:06:52.869Z,3.83
2018-06-08T05:09:22.767Z,3.77
2018-06-08T05:11:52.832Z,3.70
2018-06-08T05:14:22.911Z,3.73
2018-06-08T05:16:52.818Z,4.10
2018-06-08T05:19:22.913Z,4.57
2018-06-08T05:21:52.766Z,4.00
2018-06-08T05:24:23.273Z,4.33
2018-06-08T05:26:53.014Z,4.80
2018-06-08T05:29:22.929Z,4.10
2018-06-08T05:31:52.901Z,4.13
2018-06-08T05:34:23.154Z,3.93
2018-06-08T05:36:52.901Z,4.20
2018-06-08T05:39:22.848Z,4.37
2018-06-08T05:41:52.888Z,4.23
2018-06-08T05:44:22.826Z,4.43
2018-06-08T05:46:52.879Z,4.17
2018-06-08T05:49:22.817Z,4.10
2018-06-08T05:51:52.798Z,4.53
2018-06-08T05:54:22.866Z,4.40
2018-06-08T05:56:52.817Z,4.63
2018-06-08T05:59:22.861Z,4.07
2018-06-08T06:01:53.181Z,4.27
2018-06-08T06:04:23.037Z,4.03
2018-06-08T06:06:52.813Z,3.67
2018-06-08T06:09:22.897Z,3.63
2018-06-08T06:11:54.538Z,4.30
2018-06-08T06:14:28.260Z,4.30
2018-06-08T06:16:58.173Z,4.20
2018-06-08T06:19:28.584Z,3.60
2018-06-08T06:21:58.680Z,4.75
2018-06-08T06:24:28.878Z,4.67
2018-06-08T06:26:58.944Z,4.40
2018-06-08T06:29:31.090Z,4.07
2018-06-08T06:32:00.964Z,4.40
2018-06-08T06:34:30.994Z,3.97
2018-06-08T06:37:01.008Z,3.87
2018-06-08T06:39:30.980Z,4.67
2018-06-08T06:42:01.206Z,3.80
2018-06-08T06:44:31.537Z,4.10
2018-06-08T06:47:01.338Z,3.80
2018-06-08T06:49:31.620Z,4.25
2018-06-08T06:52:01.725Z,3.85
2018-06-08T06:54:31.951Z,4.23
2018-06-08T06:57:01.991Z,3.80
2018-06-08T06:59:31.940Z,4.13
2018-06-08T07:02:01.803Z,4.27
2018-06-08T07:09:20.885Z,3.47
2018-06-08T07:11:51.898Z,3.52
2018-06-08T07:14:21.710Z,3.80
2018-06-08T07:16:52.542Z,3.80
2018-06-08T07:19:22.826Z,3.63
2018-06-08T07:21:53.858Z,4.13
2018-06-08T07:24:24.185Z,3.18
2018-06-08T07:26:56.852Z,3.77
2018-06-08T07:29:27.907Z,3.35
2018-06-08T07:31:58.159Z,3.60
2018-06-08T07:34:28.790Z,3.30
2018-06-08T07:37:00.493Z,3.75
2018-06-08T07:39:30.661Z,3.43
2018-06-08T07:42:00.830Z,3.25
2018-06-08T07:44:30.624Z,2.87
2018-06-08T07:47:01.126Z,3.30
2018-06-08T07:49:32.005Z,3.30
2018-06-08T07:52:03.542Z,2.83
2018-06-08T07:54:33.711Z,2.83
2018-06-08T07:57:03.925Z,2.83
2018-06-08T07:59:35.954Z,2.98
2018-06-08T08:02:06.396Z,3.92
2018-06-08T08:04:36.271Z,2.87
2018-06-08T08:07:07.054Z,3.57
2018-06-08T08:09:38.062Z,2.75
2018-06-08T08:12:08.337Z,2.70
2018-06-08T08:14:38.594Z,2.50
2018-06-08T08:17:11.190Z,2.62
2018-06-08T08:19:43.222Z,2.72
2018-06-08T08:22:13.462Z,2.37
2018-06-08T08:24:43.779Z,2.53
2018-06-08T08:27:13.838Z,2.60
2018-06-08T08:29:45.030Z,2.62
2018-06-08T08:32:16.181Z,2.40
2018-06-08T08:34:46.877Z,2.30
2018-06-08T08:37:16.630Z,2.23
2018-06-08T08:39:50.110Z,3.12
2018-06-08T08:42:20.318Z,2.63
2018-06-08T08:44:50.594Z,2.57
2018-06-08T08:47:20.783Z,2.80
2018-06-08T08:49:55.070Z,2.38
2018-06-08T08:52:26.577Z,2.95
2018-06-08T08:54:58.722Z,2.73
2018-06-08T08:57:29.478Z,3.15
2018-06-08T09:00:01.002Z,2.67
2018-06-08T09:02:30.877Z,2.97
2018-06-08T09:05:01.760Z,2.70
2018-06-08T09:07:33.186Z,2.55
2018-06-08T09:10:04.431Z,2.60
2018-06-08T09:12:35.893Z,2.50
2018-06-08T09:15:10.853Z,2.50
2018-06-08T09:17:42.322Z,2.72
2018-06-08T09:20:12.766Z,2.80
2018-06-08T09:22:44.345Z,2.72
2018-06-08T09:25:14.685Z,3.20
2018-06-08T09:27:44.582Z,2.80
2018-06-08T09:30:17.370Z,2.90
2018-06-08T09:32:49.557Z,3.10
2018-06-08T09:35:19.356Z,3.47
2018-06-08T09:37:50.376Z,2.90
2018-06-08T09:40:21.907Z,2.90
2018-06-08T09:42:53.637Z,2.90
2018-06-08T09:45:24.826Z,2.43
2018-06-08T09:47:56.649Z,3.00
2018-06-08T09:50:28.152Z,3.00
2018-06-08T09:53:01.709Z,3.05
2018-06-08T09:55:32.842Z,3.17
2018-06-08T09:58:04.081Z,3.05
2018-06-08T10:00:39.813Z,2.73
2018-06-08T10:03:10.985Z,2.80
2018-06-08T10:05:40.747Z,2.90
2018-06-08T10:08:10.661Z,2.40
2018-06-08T10:10:40.369Z,2.80
2018-06-08T10:13:10.526Z,2.80
2018-06-08T10:15:40.569Z,2.98
2018-06-08T10:18:10.624Z,3.25
2018-06-08T10:20:40.560Z,3.17
2018-06-08T10:23:10.591Z,2.58
2018-06-08T10:25:40.278Z,2.70
2018-06-08T10:28:10.051Z,2.83
2018-06-08T10:30:39.801Z,2.80
2018-06-08T10:33:09.462Z,2.95
2018-06-08T10:35:39.201Z,3.03
2018-06-08T10:38:09.402Z,3.40
2018-06-08T10:40:39.141Z,2.50
2018-06-08T10:43:08.962Z,3.03
2018-06-08T10:45:38.770Z,2.93
2018-06-08T10:48:08.540Z,3.60
2018-06-08T10:50:38.825Z,3.42
2018-06-08T10:53:08.551Z,3.27
2018-06-08T10:55:39.214Z,2.92
2018-06-08T10:58:10.513Z,2.90
2018-06-08T11:00:41.638Z,3.10
2018-06-08T11:03:11.343Z,3.53
2018-06-08T11:05:42.466Z,3.08
2018-06-08T11:08:13.229Z,3.10
2018-06-08T11:10:44.462Z,3.80
2018-06-08T11:13:15.266Z,3.80
2018-06-08T11:15:46.442Z,3.30
2018-06-08T11:18:17.241Z,3.30
2018-06-08T11:20:48.561Z,3.54
2018-06-08T11:23:19.226Z,3.33
2018-06-08T11:25:50.583Z,3.48
2018-06-08T11:28:21.281Z,3.62
2018-06-08T11:30:52.525Z,3.50
2018-06-08T11:33:22.279Z,3.70
2018-06-08T11:35:53.524Z,3.74
2018-06-08T11:38:24.266Z,3.60
2018-06-08T11:40:55.463Z,3.52
2018-06-08T11:43:26.266Z,3.60
2018-06-08T11:45:57.487Z,3.52
2018-06-08T11:48:28.225Z,3.62
2018-06-08T11:50:59.538Z,3.90
2018-06-08T11:53:30.235Z,3.98
2018-06-08T11:56:01.547Z,4.02
2018-06-08T11:58:32.229Z,3.70
2018-06-08T12:01:03.565Z,3.70
2018-06-08T12:03:33.309Z,3.97
2018-06-08T12:06:04.438Z,3.46
2018-06-08T12:08:35.254Z,3.80
2018-06-08T12:11:06.921Z,3.72
2018-06-08T12:13:38.478Z,3.72
2018-06-08T12:16:08.459Z,4.03
2018-06-08T12:18:39.218Z,3.75
2018-06-08T12:21:10.634Z,3.88
2018-06-08T12:23:41.375Z,3.92
2018-06-08T12:26:12.314Z,3.67
2018-06-08T12:28:43.569Z,4.64
2018-06-08T12:31:14.478Z,3.90
2018-06-08T12:33:44.294Z,3.80
2018-06-08T12:36:15.681Z,3.48
2018-06-08T12:38:46.326Z,3.70
2018-06-08T12:41:17.418Z,3.52
2018-06-08T12:43:48.237Z,4.15
2018-06-08T12:46:18.653Z,4.20
2018-06-08T12:48:49.295Z,3.47
2018-06-08T12:51:20.577Z,4.30
2018-06-08T12:53:51.329Z,4.03
2018-06-08T12:56:22.589Z,3.78
2018-06-08T12:58:53.301Z,3.67
2018-06-08T13:01:24.613Z,3.92
2018-06-08T13:03:55.330Z,3.40
2018-06-08T13:06:26.578Z,4.20
2018-06-08T13:08:57.363Z,4.03
2018-06-08T13:11:28.212Z,3.20
2018-06-08T13:13:59.733Z,3.80
2018-06-08T13:16:30.243Z,3.62
2018-06-08T13:19:00.661Z,3.78
2018-06-08T13:21:31.339Z,3.72
2018-06-08T13:24:02.591Z,3.70
2018-06-08T13:26:33.601Z,3.83
2018-06-08T13:29:04.538Z,4.20
2018-06-08T13:31:35.741Z,4.12
2018-06-08T13:34:05.583Z,4.27
2018-06-08T13:36:36.256Z,4.15
2018-06-08T13:50:34.880Z,3.90
2018-06-08T13:53:04.943Z,3.80
2018-06-08T13:55:34.840Z,4.43
2018-06-08T13:58:04.666Z,3.97
2018-06-08T14:00:34.517Z,3.97
2018-06-08T14:03:04.321Z,3.97
2018-06-08T14:05:34.145Z,4.30
2018-06-08T14:08:03.989Z,3.90
2018-06-08T14:10:33.790Z,4.57
2018-06-08T14:13:04.123Z,4.83
2018-06-08T14:15:33.910Z,4.27
2018-06-08T14:18:03.747Z,4.40
2018-06-08T14:20:33.555Z,3.73
2018-06-08T14:23:03.431Z,4.13
2018-06-08T14:25:33.286Z,3.97
2018-06-08T14:28:03.078Z,4.07
2018-06-08T14:30:32.937Z,4.30
2018-06-08T14:33:02.756Z,4.17
2018-06-08T14:35:32.631Z,3.70
2018-06-08T14:38:02.456Z,3.97
2018-06-08T14:40:32.299Z,4.07
2018-06-08T14:43:02.130Z,4.40
2018-06-08T14:45:32.001Z,4.30
2018-06-08T14:48:01.863Z,3.90
2018-06-08T14:50:31.787Z,3.87
2018-06-08T14:53:01.598Z,4.70
2018-06-08T14:55:31.446Z,4.30
2018-06-08T14:58:01.293Z,4.23
2018-06-08T15:00:31.123Z,4.30
2018-06-08T15:03:00.962Z,4.10
2018-06-08T15:05:31.153Z,4.40
2018-06-08T15:08:01.017Z,3.90
2018-06-08T15:10:30.871Z,4.20
2018-06-08T15:13:00.855Z,4.60
2018-06-08T15:15:30.700Z,4.20
2018-06-08T15:18:00.601Z,4.37
2018-06-08T15:20:30.429Z,4.20
2018-06-08T15:23:00.358Z,3.73
2018-06-08T15:25:30.162Z,4.07
2018-06-08T15:27:59.986Z,4.20
2018-06-08T15:30:29.868Z,4.20
2018-06-08T15:32:59.757Z,4.50
2018-06-08T15:35:29.626Z,4.27
2018-06-08T15:37:59.446Z,3.73
2018-06-08T15:40:29.445Z,3.87
2018-06-08T15:42:59.438Z,3.97
2018-06-08T15:45:32.898Z,4.17
2018-06-08T15:48:02.717Z,4.27
2018-06-08T15:50:32.609Z,4.47
2018-06-08T15:53:02.486Z,4.40
2018-06-08T15:55:32.393Z,4.33
2018-06-08T15:58:02.418Z,4.20
2018-06-08T16:00:32.369Z,4.20
2018-06-08T16:03:02.187Z,4.30
2018-06-08T16:05:31.994Z,4.73
2018-06-08T16:08:01.891Z,3.77
2018-06-08T16:10:31.670Z,4.03
2018-06-08T16:13:01.509Z,4.27
2018-06-08T16:15:31.325Z,3.90
2018-06-08T16:18:01.120Z,3.87
2018-06-08T16:20:30.993Z,4.40
2018-06-08T16:23:00.865Z,4.10
2018-06-08T16:25:30.675Z,4.30
2018-06-08T16:28:00.483Z,4.70
2018-06-08T16:30:30.292Z,4.40
2018-06-08T16:33:00.088Z,4.70
2018-06-08T16:35:29.837Z,5.27
2018-06-08T16:37:59.658Z,4.33
2018-06-08T16:40:29.447Z,4.60
2018-06-08T16:42:59.258Z,5.00
2018-06-08T16:45:29.027Z,4.27
2018-06-08T16:47:58.815Z,4.60
2018-06-08T16:50:28.963Z,3.93
2018-06-08T16:52:58.739Z,4.50
2018-06-08T16:55:28.621Z,4.10
2018-06-08T16:57:58.393Z,4.40
2018-06-08T17:00:28.227Z,4.40
2018-06-08T17:02:58.043Z,5.23
2018-06-08T17:05:27.838Z,4.50
2018-06-08T17:07:57.650Z,4.17
2018-06-08T17:10:27.422Z,5.37
2018-06-08T17:12:57.280Z,5.13
2018-06-08T17:15:27.081Z,5.43
2018-06-08T17:17:56.914Z,5.53
2018-06-08T17:20:26.727Z,4.50
2018-06-08T17:22:56.531Z,4.70
2018-06-08T17:25:26.371Z,5.10
2018-06-08T17:27:56.141Z,4.73
2018-06-08T17:30:25.923Z,4.20
2018-06-08T17:32:55.687Z,4.70
2018-06-08T17:35:25.526Z,4.40
2018-06-08T17:37:58.965Z,4.73
2018-06-08T17:40:46.163Z,5.90
2018-06-08T17:43:16.009Z,5.03
2018-06-08T17:45:45.769Z,6.13
2018-06-08T17:48:15.649Z,5.17
2018-06-08T17:50:45.403Z,4.93
2018-06-08T17:53:15.224Z,8.93
2018-06-08T17:55:45.294Z,6.40
2018-06-08T17:58:15.066Z,5.47
2018-06-08T18:00:44.817Z,7.40
2018-06-08T18:03:14.598Z,11.10
2018-06-08T18:05:44.359Z,10.17
2018-06-08T18:08:14.149Z,8.07
2018-06-08T18:10:43.896Z,5.50
2018-06-08T18:13:13.673Z,5.73
2018-06-08T18:15:43.424Z,6.50
2018-06-08T18:18:13.293Z,5.57
2018-06-08T18:20:43.196Z,6.10
2018-06-08T18:23:12.969Z,5.87
2018-06-08T18:25:42.844Z,5.30
2018-06-08T18:28:12.637Z,5.37
2018-06-08T18:30:42.474Z,5.67
2018-06-08T18:33:12.279Z,7.20
2018-06-08T18:35:42.298Z,6.23
2018-06-08T18:38:12.080Z,6.27
2018-06-08T18:40:42.296Z,5.47
2018-06-08T18:43:12.072Z,5.53
2018-06-08T18:45:42.253Z,4.90
2018-06-08T18:48:11.994Z,4.37
2018-06-08T18:50:41.809Z,5.27
2018-06-08T18:53:11.635Z,5.10
2018-06-08T18:55:41.365Z,5.00
2018-06-08T18:58:11.518Z,6.13
2018-06-08T19:00:41.936Z,9.17
2018-06-08T19:03:12.050Z,8.63
2018-06-08T19:05:41.810Z,8.37
2018-06-08T19:08:11.620Z,9.80
2018-06-08T19:10:41.373Z,11.20
2018-06-08T19:13:11.130Z,7.87
2018-06-08T19:15:40.989Z,8.90
2018-06-08T19:18:10.869Z,8.23
2018-06-08T19:20:40.669Z,21.00
2018-06-08T19:23:10.463Z,10.37
2018-06-08T19:25:40.274Z,7.97
2018-06-08T19:28:10.169Z,6.70
2018-06-08T19:30:39.981Z,7.23
2018-06-08T19:33:10.283Z,6.90
2018-06-08T19:35:40.030Z,7.33
2018-06-08T19:38:09.775Z,7.60
2018-06-08T19:40:39.589Z,7.13
2018-06-08T19:43:09.389Z,6.57
2018-06-08T19:45:39.182Z,7.20
2018-06-08T19:48:08.965Z,7.67
2018-06-08T19:50:38.737Z,7.20
2018-06-08T19:53:08.593Z,7.87
2018-06-08T19:55:38.360Z,7.23
2018-06-08T19:58:08.209Z,7.00
2018-06-08T20:00:37.970Z,6.87
2018-06-08T20:03:07.739Z,7.00
2018-06-08T20:05:37.525Z,6.90
2018-06-08T20:08:07.309Z,7.63
2018-06-08T20:10:37.074Z,6.83
2018-06-08T20:13:07.004Z,7.50
2018-06-08T20:15:36.848Z,7.13
2018-06-08T20:18:07.050Z,7.37
2018-06-08T20:20:36.880Z,7.50
2018-06-08T20:23:06.645Z,7.37
2018-06-08T20:25:36.462Z,7.43
2018-06-08T20:28:06.533Z,7.10
2018-06-08T20:30:36.329Z,7.23
2018-06-08T20:33:06.093Z,8.23
2018-06-08T20:35:35.833Z,7.60
2018-06-08T20:38:05.670Z,8.30
2018-06-08T20:40:35.442Z,7.67
2018-06-08T20:43:05.248Z,7.80
2018-06-08T20:45:34.981Z,8.30
2018-06-08T20:48:04.766Z,7.93
2018-06-08T20:50:34.550Z,8.40
2018-06-08T20:53:04.321Z,8.53
2018-06-08T20:55:34.093Z,8.07
2018-06-08T20:58:03.997Z,8.30
2018-06-08T21:00:33.777Z,7.97
2018-06-08T21:03:03.571Z,8.07
2018-06-08T21:05:33.341Z,8.17
2018-06-08T21:08:03.065Z,8.07
2018-06-08T21:10:32.841Z,8.03
2018-06-08T21:13:03.197Z,7.83
2018-06-08T21:15:32.983Z,7.67
2018-06-08T21:18:02.729Z,8.40
2018-06-08T21:20:32.624Z,7.80
2018-06-08T21:23:02.362Z,7.93
2018-06-08T21:25:32.098Z,7.73
2018-06-08T21:28:01.895Z,7.97
2018-06-08T21:30:31.641Z,8.20
2018-06-08T21:33:01.434Z,7.10
2018-06-08T21:35:31.209Z,8.27
2018-06-08T21:38:00.949Z,7.80
2018-06-08T21:40:30.739Z,8.37
2018-06-08T21:43:00.498Z,8.10
2018-06-08T21:45:30.273Z,8.20
2018-06-08T21:48:00.021Z,7.73
2018-06-08T21:50:29.816Z,8.43
2018-06-08T21:52:59.557Z,9.00
2018-06-08T21:55:29.403Z,9.70
2018-06-08T21:57:59.353Z,9.47
2018-06-08T22:00:29.097Z,8.93
2018-06-08T22:02:58.920Z,8.40
2018-06-08T22:05:28.653Z,9.07
2018-06-08T22:07:58.477Z,9.47
2018-06-08T22:10:28.249Z,9.80
2018-06-08T22:12:58.115Z,8.83
2018-06-08T22:15:27.873Z,10.37
2018-06-08T22:17:57.685Z,9.57
2018-06-08T22:20:27.501Z,10.00
2018-06-08T22:22:57.328Z,9.13
2018-06-08T22:25:27.148Z,9.07
2018-06-08T22:27:57.567Z,9.33
2018-06-08T22:30:29.199Z,8.83
2018-06-08T22:32:59.005Z,9.97
2018-06-08T22:35:28.737Z,10.27
2018-06-08T22:37:58.528Z,9.57
2018-06-08T22:40:28.266Z,9.17
2018-06-08T22:42:57.993Z,8.83
2018-06-08T22:45:27.789Z,9.23
2018-06-08T22:47:57.521Z,9.30
2018-06-08T22:50:27.301Z,9.83
2018-06-08T22:52:57.045Z,9.83
2018-06-08T22:55:26.804Z,9.57
2018-06-08T22:57:56.669Z,9.70
2018-06-08T23:00:26.420Z,9.77
2018-06-08T23:02:56.183Z,9.17
2018-06-08T23:05:25.922Z,9.77
2018-06-08T23:07:55.747Z,9.90
2018-06-08T23:10:25.489Z,9.60
2018-06-08T23:12:55.277Z,11.43
2018-06-08T23:15:25.074Z,12.10
2018-06-08T23:17:54.886Z,11.97
2018-06-08T23:20:24.689Z,10.70
2018-06-08T23:22:54.417Z,11.60
2018-06-08T23:25:24.198Z,11.63
2018-06-08T23:27:53.985Z,11.00
2018-06-08T23:30:23.730Z,10.40
2018-06-08T23:32:53.493Z,10.63
2018-06-08T23:35:23.325Z,9.77
2018-06-08T23:37:53.082Z,10.37
2018-06-08T23:40:22.842Z,10.70
2018-06-08T23:42:52.622Z,10.00
2018-06-08T23:45:22.361Z,10.23
2018-06-08T23:47:52.148Z,10.90
2018-06-08T23:50:21.885Z,10.63
2018-06-08T23:52:51.615Z,11.13
2018-06-08T23:55:21.436Z,10.63
2018-06-08T23:57:51.188Z,10.03
